sensor_id;sensor_type;location;lat;lon;timestamp;temperature;humidity
66831;DHT22;53739;44.224;22.528;2022-10-19T00:00:15;153.80;2252.80
66831;DHT22;53739;44.224;22.528;2022-10-19T00:02:40;153.80;2252.80
66831;DHT22;53739;44.224;22.528;2022-10-19T00:05:06;153.90;2252.80
66831;DHT22;53739;44.224;22.528;2022-10-19T00:07:32;153.90;2252.80
66831;DHT22;53739;44.224;22.528;2022-10-19T00:09:58;153.90;2252.80
66831;DHT22;53739;44.224;22.528;2022-10-19T00:12:23;153.80;2252.80
66831;DHT22;53739;44.224;22.528;2022-10-19T00:14:49;153.70;2252.80
66831;DHT22;53739;44.224;22.528;2022-10-19T00:17:15;153.70;2252.80
66831;DHT22;53739;44.224;22.528;2022-10-19T00:19:40;153.60;2252.80
66831;DHT22;53739;44.224;22.528;2022-10-19T00:22:06;153.60;2252.80
66831;DHT22;53739;44.224;22.528;2022-10-19T00:24:32;153.60;2252.80
66831;DHT22;53739;44.224;22.528;2022-10-19T00:26:57;153.60;2252.80
66831;DHT22;53739;44.224;22.528;2022-10-19T00:29:23;153.60;2252.80
66831;DHT22;53739;44.224;22.528;2022-10-19T00:31:49;153.60;2252.80
66831;DHT22;53739;44.224;22.528;2022-10-19T00:34:15;128.80;2252.80
66831;DHT22;53739;44.224;22.528;2022-10-19T00:36:40;128.70;2022.40
66831;DHT22;53739;44.224;22.528;2022-10-19T00:39:07;128.70;2073.60
66831;DHT22;53739;44.224;22.528;2022-10-19T00:41:34;128.80;2022.40
66831;DHT22;53739;44.224;22.528;2022-10-19T00:44:04;128.80;2022.40
66831;DHT22;53739;44.224;22.528;2022-10-19T00:46:32;128.80;1945.60
66831;DHT22;53739;44.224;22.528;2022-10-19T00:49:01;128.80;2252.80
66831;DHT22;53739;44.224;22.528;2022-10-19T00:51:27;128.60;2252.80
66831;DHT22;53739;44.224;22.528;2022-10-19T00:53:54;128.70;2150.40
66831;DHT22;53739;44.224;22.528;2022-10-19T00:56:20;128.60;2073.60
66831;DHT22;53739;44.224;22.528;2022-10-19T00:58:46;128.60;1996.80
66831;DHT22;53739;44.224;22.528;2022-10-19T01:01:13;128.50;2176.00
66831;DHT22;53739;44.224;22.528;2022-10-19T01:03:40;128.50;2048.00
66831;DHT22;53739;44.224;22.528;2022-10-19T01:06:06;128.50;1996.80
66831;DHT22;53739;44.224;22.528;2022-10-19T01:08:32;128.40;2150.40
66831;DHT22;53739;44.224;22.528;2022-10-19T01:14:08;128.50;2252.80
66831;DHT22;53739;44.224;22.528;2022-10-19T01:21:31;128.30;2022.40
66831;DHT22;53739;44.224;22.528;2022-10-19T01:26:51;128.30;1996.80
66831;DHT22;53739;44.224;22.528;2022-10-19T01:32:02;128.20;2099.20
66831;DHT22;53739;44.224;22.528;2022-10-19T01:37:20;128.20;1920.00
66831;DHT22;53739;44.224;22.528;2022-10-19T01:42:39;103.30;2227.20
66831;DHT22;53739;44.224;22.528;2022-10-19T01:45:04;103.30;2227.20
66831;DHT22;53739;44.224;22.528;2022-10-19T01:47:37;103.30;2227.20
66831;DHT22;53739;44.224;22.528;2022-10-19T01:50:10;128.00;1971.20
66831;DHT22;53739;44.224;22.528;2022-10-19T01:52:37;128.00;2073.60
66831;DHT22;53739;44.224;22.528;2022-10-19T01:55:05;128.00;1894.40
66831;DHT22;53739;44.224;22.528;2022-10-19T01:57:33;103.20;2227.20
66831;DHT22;53739;44.224;22.528;2022-10-19T01:59:59;103.10;2227.20
66831;DHT22;53739;44.224;22.528;2022-10-19T02:02:32;103.20;2227.20
66831;DHT22;53739;44.224;22.528;2022-10-19T02:04:59;103.20;2227.20
66831;DHT22;53739;44.224;22.528;2022-10-19T02:07:26;103.10;2227.20
66831;DHT22;53739;44.224;22.528;2022-10-19T02:09:52;103.00;2227.20
66831;DHT22;53739;44.224;22.528;2022-10-19T02:12:17;103.00;2227.20
66831;DHT22;53739;44.224;22.528;2022-10-19T02:14:46;103.00;2227.20
66831;DHT22;53739;44.224;22.528;2022-10-19T02:17:21;103.00;2227.20
66831;DHT22;53739;44.224;22.528;2022-10-19T02:19:49;103.10;2227.20
66831;DHT22;53739;44.224;22.528;2022-10-19T02:22:15;103.10;2227.20
66831;DHT22;53739;44.224;22.528;2022-10-19T02:24:40;103.00;2227.20
66831;DHT22;53739;44.224;22.528;2022-10-19T02:27:06;103.10;2227.20
66831;DHT22;53739;44.224;22.528;2022-10-19T02:29:32;103.10;2227.20
66831;DHT22;53739;44.224;22.528;2022-10-19T02:31:59;103.10;2227.20
66831;DHT22;53739;44.224;22.528;2022-10-19T02:34:24;103.10;2227.20
66831;DHT22;53739;44.224;22.528;2022-10-19T02:36:50;103.10;2227.20
66831;DHT22;53739;44.224;22.528;2022-10-19T02:39:16;103.20;1996.80
66831;DHT22;53739;44.224;22.528;2022-10-19T02:41:44;103.10;2227.20
66831;DHT22;53739;44.224;22.528;2022-10-19T02:46:46;103.30;1920.00
66831;DHT22;53739;44.224;22.528;2022-10-19T02:49:14;103.20;2227.20
66831;DHT22;53739;44.224;22.528;2022-10-19T02:51:54;103.20;2227.20
66831;DHT22;53739;44.224;22.528;2022-10-19T02:54:20;103.10;2227.20
66831;DHT22;53739;44.224;22.528;2022-10-19T02:56:46;103.10;2227.20
66831;DHT22;53739;44.224;22.528;2022-10-19T02:59:11;103.10;2227.20
66831;DHT22;53739;44.224;22.528;2022-10-19T03:01:37;103.10;2227.20
66831;DHT22;53739;44.224;22.528;2022-10-19T03:04:02;103.00;2227.20
66831;DHT22;53739;44.224;22.528;2022-10-19T03:06:28;103.00;2227.20
66831;DHT22;53739;44.224;22.528;2022-10-19T03:08:54;103.00;2227.20
66831;DHT22;53739;44.224;22.528;2022-10-19T03:11:19;103.00;2227.20
66831;DHT22;53739;44.224;22.528;2022-10-19T03:13:45;103.10;2227.20
66831;DHT22;53739;44.224;22.528;2022-10-19T03:16:11;103.20;2201.60
66831;DHT22;53739;44.224;22.528;2022-10-19T03:18:37;103.10;2227.20
66831;DHT22;53739;44.224;22.528;2022-10-19T03:21:07;103.10;2227.20
66831;DHT22;53739;44.224;22.528;2022-10-19T03:23:33;103.00;2227.20
66831;DHT22;53739;44.224;22.528;2022-10-19T03:25:59;103.10;2048.00
66831;DHT22;53739;44.224;22.528;2022-10-19T03:28:24;103.00;2227.20
66831;DHT22;53739;44.224;22.528;2022-10-19T03:30:50;103.00;2227.20
66831;DHT22;53739;44.224;22.528;2022-10-19T03:33:16;102.90;2227.20
66831;DHT22;53739;44.224;22.528;2022-10-19T03:35:41;102.90;2227.20
66831;DHT22;53739;44.224;22.528;2022-10-19T03:38:07;102.90;2227.20
66831;DHT22;53739;44.224;22.528;2022-10-19T03:40:32;102.80;2227.20
66831;DHT22;53739;44.224;22.528;2022-10-19T03:42:58;102.70;2227.20
66831;DHT22;53739;44.224;22.528;2022-10-19T03:45:24;102.70;2227.20
66831;DHT22;53739;44.224;22.528;2022-10-19T03:47:49;102.70;2227.20
66831;DHT22;53739;44.224;22.528;2022-10-19T03:50:16;102.70;1843.20
66831;DHT22;53739;44.224;22.528;2022-10-19T03:52:42;102.60;1971.20
66831;DHT22;53739;44.224;22.528;2022-10-19T03:55:08;102.60;1894.40
66831;DHT22;53739;44.224;22.528;2022-10-19T03:57:34;102.60;2201.60
66831;DHT22;53739;44.224;22.528;2022-10-19T04:00:00;102.60;1894.40
66831;DHT22;53739;44.224;22.528;2022-10-19T04:02:26;102.50;2048.00
66831;DHT22;53739;44.224;22.528;2022-10-19T04:04:51;102.50;2227.20
66831;DHT22;53739;44.224;22.528;2022-10-19T04:07:17;102.50;1920.00
66831;DHT22;53739;44.224;22.528;2022-10-19T04:09:43;102.50;2150.40
66831;DHT22;53739;44.224;22.528;2022-10-19T04:12:08;102.50;2227.20
66831;DHT22;53739;44.224;22.528;2022-10-19T04:14:34;102.50;2176.00
66831;DHT22;53739;44.224;22.528;2022-10-19T04:17:00;102.50;1920.00
66831;DHT22;53739;44.224;22.528;2022-10-19T04:19:26;102.50;2022.40
66831;DHT22;53739;44.224;22.528;2022-10-19T04:21:52;102.40;2227.20
66831;DHT22;53739;44.224;22.528;2022-10-19T04:24:17;77.70;2227.20
66831;DHT22;53739;44.224;22.528;2022-10-19T04:26:44;102.40;2227.20
66831;DHT22;53739;44.224;22.528;2022-10-19T04:29:11;102.50;2227.20
66831;DHT22;53739;44.224;22.528;2022-10-19T04:31:37;102.50;2227.20
66831;DHT22;53739;44.224;22.528;2022-10-19T04:34:03;102.60;2201.60
66831;DHT22;53739;44.224;22.528;2022-10-19T04:36:29;102.70;1971.20
66831;DHT22;53739;44.224;22.528;2022-10-19T04:38:55;102.60;2227.20
66831;DHT22;53739;44.224;22.528;2022-10-19T04:41:21;102.60;2150.40
66831;DHT22;53739;44.224;22.528;2022-10-19T04:43:47;102.70;1894.40
66831;DHT22;53739;44.224;22.528;2022-10-19T04:46:17;102.70;2227.20
66831;DHT22;53739;44.224;22.528;2022-10-19T04:48:42;102.80;2048.00
66831;DHT22;53739;44.224;22.528;2022-10-19T04:51:09;102.80;1971.20
66831;DHT22;53739;44.224;22.528;2022-10-19T04:53:35;102.70;2073.60
66831;DHT22;53739;44.224;22.528;2022-10-19T04:56:05;102.80;2099.20
66831;DHT22;53739;44.224;22.528;2022-10-19T04:58:31;102.80;2150.40
66831;DHT22;53739;44.224;22.528;2022-10-19T05:00:57;102.80;2048.00
66831;DHT22;53739;44.224;22.528;2022-10-19T05:03:23;102.80;2176.00
66831;DHT22;53739;44.224;22.528;2022-10-19T05:05:49;102.90;2227.20
66831;DHT22;53739;44.224;22.528;2022-10-19T05:08:14;102.80;2227.20
66831;DHT22;53739;44.224;22.528;2022-10-19T05:10:40;102.80;2227.20
66831;DHT22;53739;44.224;22.528;2022-10-19T05:13:06;102.80;2227.20
66831;DHT22;53739;44.224;22.528;2022-10-19T05:15:31;102.80;2227.20
66831;DHT22;53739;44.224;22.528;2022-10-19T05:17:57;102.80;2227.20
66831;DHT22;53739;44.224;22.528;2022-10-19T05:23:27;103.00;2227.20
66831;DHT22;53739;44.224;22.528;2022-10-19T05:26:03;103.00;2227.20
66831;DHT22;53739;44.224;22.528;2022-10-19T05:28:29;103.10;1996.80
66831;DHT22;53739;44.224;22.528;2022-10-19T05:33:46;103.10;2227.20
66831;DHT22;53739;44.224;22.528;2022-10-19T05:36:16;103.20;2227.20
66831;DHT22;53739;44.224;22.528;2022-10-19T05:38:43;103.30;2201.60
66831;DHT22;53739;44.224;22.528;2022-10-19T05:41:09;128.00;2073.60
66831;DHT22;53739;44.224;22.528;2022-10-19T05:43:35;128.10;2252.80
66831;DHT22;53739;44.224;22.528;2022-10-19T05:46:08;128.10;2252.80
66831;DHT22;53739;44.224;22.528;2022-10-19T05:48:34;128.20;2252.80
66831;DHT22;53739;44.224;22.528;2022-10-19T05:51:00;128.30;2227.20
66831;DHT22;53739;44.224;22.528;2022-10-19T05:53:27;128.40;2252.80
66831;DHT22;53739;44.224;22.528;2022-10-19T05:55:53;128.60;2252.80
66831;DHT22;53739;44.224;22.528;2022-10-19T05:58:18;128.70;2252.80
66831;DHT22;53739;44.224;22.528;2022-10-19T06:00:49;128.90;2252.80
66831;DHT22;53739;44.224;22.528;2022-10-19T06:03:15;153.60;1868.80
66831;DHT22;53739;44.224;22.528;2022-10-19T06:05:42;153.80;2252.80
66831;DHT22;53739;44.224;22.528;2022-10-19T06:08:07;153.90;2252.80
66831;DHT22;53739;44.224;22.528;2022-10-19T06:10:33;154.10;2252.80
66831;DHT22;53739;44.224;22.528;2022-10-19T06:12:58;154.10;2252.80
66831;DHT22;53739;44.224;22.528;2022-10-19T06:15:24;154.20;2252.80
66831;DHT22;53739;44.224;22.528;2022-10-19T06:17:50;154.30;2252.80
66831;DHT22;53739;44.224;22.528;2022-10-19T06:20:15;154.50;2252.80
66831;DHT22;53739;44.224;22.528;2022-10-19T06:22:41;179.20;2252.80
66831;DHT22;53739;44.224;22.528;2022-10-19T06:25:07;179.40;2252.80
66831;DHT22;53739;44.224;22.528;2022-10-19T06:27:32;179.70;2252.80
66831;DHT22;53739;44.224;22.528;2022-10-19T06:29:58;180.00;2252.80
66831;DHT22;53739;44.224;22.528;2022-10-19T06:32:24;204.90;2252.80
66831;DHT22;53739;44.224;22.528;2022-10-19T06:34:49;205.10;2252.80
66831;DHT22;53739;44.224;22.528;2022-10-19T06:37:15;205.30;2252.80
66831;DHT22;53739;44.224;22.528;2022-10-19T06:39:41;205.60;2252.80
66831;DHT22;53739;44.224;22.528;2022-10-19T06:42:06;230.40;2252.80
66831;DHT22;53739;44.224;22.528;2022-10-19T06:44:33;230.70;2252.80
66831;DHT22;53739;44.224;22.528;2022-10-19T06:46:59;231.00;2252.80
66831;DHT22;53739;44.224;22.528;2022-10-19T06:49:25;231.30;2252.80
66831;DHT22;53739;44.224;22.528;2022-10-19T06:51:50;256.40;2252.80
66831;DHT22;53739;44.224;22.528;2022-10-19T06:54:16;256.70;2252.80
66831;DHT22;53739;44.224;22.528;2022-10-19T06:56:41;281.70;2278.40
66831;DHT22;53739;44.224;22.528;2022-10-19T06:59:07;282.00;2278.40
66831;DHT22;53739;44.224;22.528;2022-10-19T07:01:33;282.30;2278.40
66831;DHT22;53739;44.224;22.528;2022-10-19T07:03:58;307.20;2304.00
66831;DHT22;53739;44.224;22.528;2022-10-19T07:06:25;307.60;2304.00
66831;DHT22;53739;44.224;22.528;2022-10-19T07:08:51;307.90;2304.00
66831;DHT22;53739;44.224;22.528;2022-10-19T07:11:18;308.10;2304.00
66831;DHT22;53739;44.224;22.528;2022-10-19T07:13:43;333.00;2329.60
66831;DHT22;53739;44.224;22.528;2022-10-19T07:16:10;333.40;2329.60
66831;DHT22;53739;44.224;22.528;2022-10-19T07:18:37;333.30;2329.60
66831;DHT22;53739;44.224;22.528;2022-10-19T07:21:06;333.60;2329.60
66831;DHT22;53739;44.224;22.528;2022-10-19T07:23:33;358.50;2329.60
66831;DHT22;53739;44.224;22.528;2022-10-19T07:26:02;358.90;2329.60
66831;DHT22;53739;44.224;22.528;2022-10-19T07:28:28;359.00;2329.60
66831;DHT22;53739;44.224;22.528;2022-10-19T07:30:54;359.30;2329.60
66831;DHT22;53739;44.224;22.528;2022-10-19T07:33:20;384.10;2329.60
66831;DHT22;53739;44.224;22.528;2022-10-19T07:35:46;384.20;2329.60
66831;DHT22;53739;44.224;22.528;2022-10-19T07:38:11;384.60;2329.60
66831;DHT22;53739;44.224;22.528;2022-10-19T07:40:37;384.30;2329.60
66831;DHT22;53739;44.224;22.528;2022-10-19T07:43:03;384.70;2329.60
66831;DHT22;53739;44.224;22.528;2022-10-19T07:45:29;384.90;2329.60
66831;DHT22;53739;44.224;22.528;2022-10-19T07:47:55;384.90;2329.60
66831;DHT22;53739;44.224;22.528;2022-10-19T07:50:20;409.60;2355.20
66831;DHT22;53739;44.224;22.528;2022-10-19T07:52:50;409.90;2355.20
66831;DHT22;53739;44.224;22.528;2022-10-19T07:55:16;410.00;2355.20
66831;DHT22;53739;44.224;22.528;2022-10-19T07:57:41;410.30;2355.20
66831;DHT22;53739;44.224;22.528;2022-10-19T08:00:07;410.40;2355.20
66831;DHT22;53739;44.224;22.528;2022-10-19T08:02:49;435.30;2355.20
66831;DHT22;53739;44.224;22.528;2022-10-19T08:05:18;435.50;2355.20
66831;DHT22;53739;44.224;22.528;2022-10-19T08:07:43;435.80;2355.20
66831;DHT22;53739;44.224;22.528;2022-10-19T08:10:11;436.00;2355.20
66831;DHT22;53739;44.224;22.528;2022-10-19T08:12:37;460.80;2329.60
66831;DHT22;53739;44.224;22.528;2022-10-19T08:15:03;461.10;2304.00
66831;DHT22;53739;44.224;22.528;2022-10-19T08:17:37;461.40;2201.60
66831;DHT22;53739;44.224;22.528;2022-10-19T08:20:07;461.50;2227.20
66831;DHT22;53739;44.224;22.528;2022-10-19T08:22:36;461.70;2150.40
66831;DHT22;53739;44.224;22.528;2022-10-19T08:28:06;486.90;2073.60
66831;DHT22;53739;44.224;22.528;2022-10-19T08:30:35;487.20;1945.60
66831;DHT22;53739;44.224;22.528;2022-10-19T08:33:02;512.00;1945.60
66831;DHT22;53739;44.224;22.528;2022-10-19T08:35:30;512.30;1894.40
66831;DHT22;53739;44.224;22.528;2022-10-19T08:37:56;512.70;1843.20
66831;DHT22;53739;44.224;22.528;2022-10-19T08:40:23;537.60;1868.80
66831;DHT22;53739;44.224;22.528;2022-10-19T08:45:24;537.70;1894.40
66831;DHT22;53739;44.224;22.528;2022-10-19T08:50:39;563.20;1792.00
66831;DHT22;53739;44.224;22.528;2022-10-19T08:53:09;563.60;1792.00
66831;DHT22;53739;44.224;22.528;2022-10-19T09:00:48;564.00;1382.40
66831;DHT22;53739;44.224;22.528;2022-10-19T09:03:37;589.10;1510.40
66831;DHT22;53739;44.224;22.528;2022-10-19T09:08:47;589.50;1459.20
66831;DHT22;53739;44.224;22.528;2022-10-19T09:11:12;589.50;1280.00
66831;DHT22;53739;44.224;22.528;2022-10-19T09:13:41;589.60;1228.80
66831;DHT22;53739;44.224;22.528;2022-10-19T09:16:11;589.70;1075.20
66831;DHT22;53739;44.224;22.528;2022-10-19T09:18:40;589.50;896.00
66831;DHT22;53739;44.224;22.528;2022-10-19T09:21:17;589.50;998.40
66831;DHT22;53739;44.224;22.528;2022-10-19T09:26:51;589.30;998.40
66831;DHT22;53739;44.224;22.528;2022-10-19T09:29:23;589.50;844.80
66831;DHT22;53739;44.224;22.528;2022-10-19T09:31:52;589.60;896.00
66831;DHT22;53739;44.224;22.528;2022-10-19T09:36:44;589.50;742.40
66831;DHT22;53739;44.224;22.528;2022-10-19T09:39:12;589.50;768.00
66831;DHT22;53739;44.224;22.528;2022-10-19T09:41:44;589.50;742.40
66831;DHT22;53739;44.224;22.528;2022-10-19T09:44:11;589.40;691.20
66831;DHT22;53739;44.224;22.528;2022-10-19T09:49:41;589.50;691.20
66831;DHT22;53739;44.224;22.528;2022-10-19T09:52:23;589.60;588.80
66831;DHT22;53739;44.224;22.528;2022-10-19T09:54:58;614.40;588.80
66831;DHT22;53739;44.224;22.528;2022-10-19T09:57:24;614.40;665.60
66831;DHT22;53739;44.224;22.528;2022-10-19T09:59:50;614.40;537.60
66831;DHT22;53739;44.224;22.528;2022-10-19T10:02:18;614.40;588.80
66831;DHT22;53739;44.224;22.528;2022-10-19T10:04:45;614.40;537.60
66831;DHT22;53739;44.224;22.528;2022-10-19T10:07:13;614.50;640.00
66831;DHT22;53739;44.224;22.528;2022-10-19T10:09:39;614.60;614.40
66831;DHT22;53739;44.224;22.528;2022-10-19T10:12:07;614.50;460.80
66831;DHT22;53739;44.224;22.528;2022-10-19T10:14:34;614.70;563.20
66831;DHT22;53739;44.224;22.528;2022-10-19T10:17:43;614.70;537.60
66831;DHT22;53739;44.224;22.528;2022-10-19T10:22:29;614.90;486.40
66831;DHT22;53739;44.224;22.528;2022-10-19T10:24:55;614.90;486.40
66831;DHT22;53739;44.224;22.528;2022-10-19T10:27:27;614.90;460.80
66831;DHT22;53739;44.224;22.528;2022-10-19T10:29:54;614.90;512.00
66831;DHT22;53739;44.224;22.528;2022-10-19T10:32:20;615.00;512.00
66831;DHT22;53739;44.224;22.528;2022-10-19T10:34:47;615.00;512.00
66831;DHT22;53739;44.224;22.528;2022-10-19T10:37:17;615.00;435.20
66831;DHT22;53739;44.224;22.528;2022-10-19T10:39:45;615.20;460.80
66831;DHT22;53739;44.224;22.528;2022-10-19T10:42:15;615.00;358.40
66831;DHT22;53739;44.224;22.528;2022-10-19T10:44:47;615.10;384.00
66831;DHT22;53739;44.224;22.528;2022-10-19T10:47:17;615.30;512.00
66831;DHT22;53739;44.224;22.528;2022-10-19T10:53:27;640.00;486.40
66831;DHT22;53739;44.224;22.528;2022-10-19T10:55:56;640.00;435.20
66831;DHT22;53739;44.224;22.528;2022-10-19T10:58:33;640.40;435.20
66831;DHT22;53739;44.224;22.528;2022-10-19T11:01:00;640.60;384.00
66831;DHT22;53739;44.224;22.528;2022-10-19T11:03:28;640.50;486.40
66831;DHT22;53739;44.224;22.528;2022-10-19T11:05:55;640.40;435.20
66831;DHT22;53739;44.224;22.528;2022-10-19T11:11:23;640.20;307.20
66831;DHT22;53739;44.224;22.528;2022-10-19T11:13:52;640.00;332.80
66831;DHT22;53739;44.224;22.528;2022-10-19T11:19:15;640.00;307.20
66831;DHT22;53739;44.224;22.528;2022-10-19T11:45:14;640.00;204.80
66831;DHT22;53739;44.224;22.528;2022-10-19T11:50:27;640.10;179.20
66831;DHT22;53739;44.224;22.528;2022-10-19T11:53:00;640.40;230.40
66831;DHT22;53739;44.224;22.528;2022-10-19T12:03:56;615.20;153.60
66831;DHT22;53739;44.224;22.528;2022-10-19T12:12:01;615.00;153.60
66831;DHT22;53739;44.224;22.528;2022-10-19T12:14:32;615.10;179.20
66831;DHT22;53739;44.224;22.528;2022-10-19T12:17:01;614.80;128.00
66831;DHT22;53739;44.224;22.528;2022-10-19T12:19:34;614.90;204.80
66831;DHT22;53739;44.224;22.528;2022-10-19T12:22:01;614.70;153.60
66831;DHT22;53739;44.224;22.528;2022-10-19T12:24:28;614.70;179.20
66831;DHT22;53739;44.224;22.528;2022-10-19T12:26:54;614.70;128.00
66831;DHT22;53739;44.224;22.528;2022-10-19T12:35:06;614.80;179.20
66831;DHT22;53739;44.224;22.528;2022-10-19T12:37:38;614.80;281.60
66831;DHT22;53739;44.224;22.528;2022-10-19T12:40:18;614.90;128.00
66831;DHT22;53739;44.224;22.528;2022-10-19T12:42:50;614.80;153.60
66831;DHT22;53739;44.224;22.528;2022-10-19T12:45:46;614.70;179.20
66831;DHT22;53739;44.224;22.528;2022-10-19T12:51:27;614.60;179.20
66831;DHT22;53739;44.224;22.528;2022-10-19T13:14:50;588.90;358.40
66831;DHT22;53739;44.224;22.528;2022-10-19T13:25:13;564.00;409.60
66831;DHT22;53739;44.224;22.528;2022-10-19T13:43:28;563.90;486.40
66831;DHT22;53739;44.224;22.528;2022-10-19T14:00:55;563.30;409.60
66831;DHT22;53739;44.224;22.528;2022-10-19T14:06:12;538.50;460.80
66831;DHT22;53739;44.224;22.528;2022-10-19T14:14:53;538.30;460.80
66831;DHT22;53739;44.224;22.528;2022-10-19T14:17:22;538.20;486.40
66831;DHT22;53739;44.224;22.528;2022-10-19T14:19:53;538.20;486.40
66831;DHT22;53739;44.224;22.528;2022-10-19T14:22:24;538.20;537.60
66831;DHT22;53739;44.224;22.528;2022-10-19T14:24:50;538.10;563.20
66831;DHT22;53739;44.224;22.528;2022-10-19T14:27:18;538.00;588.80
66831;DHT22;53739;44.224;22.528;2022-10-19T14:29:47;537.90;563.20
66831;DHT22;53739;44.224;22.528;2022-10-19T14:32:16;537.80;588.80
66831;DHT22;53739;44.224;22.528;2022-10-19T14:34:44;537.70;614.40
66831;DHT22;53739;44.224;22.528;2022-10-19T14:37:32;537.60;640.00
66831;DHT22;53739;44.224;22.528;2022-10-19T14:42:45;512.90;640.00
66831;DHT22;53739;44.224;22.528;2022-10-19T14:45:13;512.80;665.60
66831;DHT22;53739;44.224;22.528;2022-10-19T14:47:49;512.80;640.00
66831;DHT22;53739;44.224;22.528;2022-10-19T14:50:18;512.70;665.60
66831;DHT22;53739;44.224;22.528;2022-10-19T14:52:45;512.70;665.60
66831;DHT22;53739;44.224;22.528;2022-10-19T14:55:13;512.60;691.20
66831;DHT22;53739;44.224;22.528;2022-10-19T14:57:40;512.50;691.20
66831;DHT22;53739;44.224;22.528;2022-10-19T15:00:16;512.40;691.20
66831;DHT22;53739;44.224;22.528;2022-10-19T15:02:44;512.40;691.20
66831;DHT22;53739;44.224;22.528;2022-10-19T15:05:16;512.40;691.20
66831;DHT22;53739;44.224;22.528;2022-10-19T15:07:43;512.30;691.20
66831;DHT22;53739;44.224;22.528;2022-10-19T15:10:19;512.20;691.20
66831;DHT22;53739;44.224;22.528;2022-10-19T15:12:46;512.10;691.20
66831;DHT22;53739;44.224;22.528;2022-10-19T15:15:20;512.10;716.80
66831;DHT22;53739;44.224;22.528;2022-10-19T15:22:50;512.00;742.40
66831;DHT22;53739;44.224;22.528;2022-10-19T15:25:34;487.30;742.40
66831;DHT22;53739;44.224;22.528;2022-10-19T15:30:55;487.20;742.40
66831;DHT22;53739;44.224;22.528;2022-10-19T15:33:21;487.10;768.00
66831;DHT22;53739;44.224;22.528;2022-10-19T15:35:47;487.00;793.60
66831;DHT22;53739;44.224;22.528;2022-10-19T15:38:30;487.00;793.60
66831;DHT22;53739;44.224;22.528;2022-10-19T15:40:57;487.00;819.20
66831;DHT22;53739;44.224;22.528;2022-10-19T15:54:06;486.70;896.00
66831;DHT22;53739;44.224;22.528;2022-10-19T15:56:34;486.70;921.60
66831;DHT22;53739;44.224;22.528;2022-10-19T15:59:01;486.70;947.20
66831;DHT22;53739;44.224;22.528;2022-10-19T16:01:27;486.60;972.80
66831;DHT22;53739;44.224;22.528;2022-10-19T16:03:53;486.50;998.40
66831;DHT22;53739;44.224;22.528;2022-10-19T16:06:20;486.50;998.40
66831;DHT22;53739;44.224;22.528;2022-10-19T16:08:46;486.50;1024.00
66831;DHT22;53739;44.224;22.528;2022-10-19T16:11:13;486.50;1049.60
66831;DHT22;53739;44.224;22.528;2022-10-19T16:13:39;486.40;1075.20
66831;DHT22;53739;44.224;22.528;2022-10-19T16:16:05;486.40;1075.20
66831;DHT22;53739;44.224;22.528;2022-10-19T16:18:32;486.40;1075.20
66831;DHT22;53739;44.224;22.528;2022-10-19T16:21:06;486.40;1100.80
66831;DHT22;53739;44.224;22.528;2022-10-19T16:23:38;486.40;1126.40
66831;DHT22;53739;44.224;22.528;2022-10-19T16:26:06;486.40;1126.40
66831;DHT22;53739;44.224;22.528;2022-10-19T16:28:32;486.40;1152.00
66831;DHT22;53739;44.224;22.528;2022-10-19T16:30:58;461.70;1152.00
66831;DHT22;53739;44.224;22.528;2022-10-19T16:33:23;461.70;1177.60
66831;DHT22;53739;44.224;22.528;2022-10-19T16:35:49;461.60;1203.20
66831;DHT22;53739;44.224;22.528;2022-10-19T16:38:14;461.60;1203.20
66831;DHT22;53739;44.224;22.528;2022-10-19T16:40:40;461.60;1228.80
66831;DHT22;53739;44.224;22.528;2022-10-19T16:43:12;461.60;1228.80
66831;DHT22;53739;44.224;22.528;2022-10-19T16:45:40;461.50;1254.40
66831;DHT22;53739;44.224;22.528;2022-10-19T16:48:06;461.50;1280.00
66831;DHT22;53739;44.224;22.528;2022-10-19T16:50:35;461.40;1280.00
66831;DHT22;53739;44.224;22.528;2022-10-19T16:55:52;461.40;1280.00
66831;DHT22;53739;44.224;22.528;2022-10-19T16:58:27;461.40;1305.60
66831;DHT22;53739;44.224;22.528;2022-10-19T17:00:53;461.40;1305.60
66831;DHT22;53739;44.224;22.528;2022-10-19T17:03:32;461.30;1331.20
66831;DHT22;53739;44.224;22.528;2022-10-19T17:08:33;461.30;1331.20
66831;DHT22;53739;44.224;22.528;2022-10-19T17:13:44;461.30;1356.80
66831;DHT22;53739;44.224;22.528;2022-10-19T17:16:29;461.30;1356.80
66831;DHT22;53739;44.224;22.528;2022-10-19T17:18:58;461.20;1356.80
66831;DHT22;53739;44.224;22.528;2022-10-19T17:21:31;461.20;1382.40
66831;DHT22;53739;44.224;22.528;2022-10-19T17:23:58;461.20;1356.80
66831;DHT22;53739;44.224;22.528;2022-10-19T17:26:25;461.10;1382.40
66831;DHT22;53739;44.224;22.528;2022-10-19T17:28:59;461.10;1382.40
66831;DHT22;53739;44.224;22.528;2022-10-19T17:31:28;461.10;1408.00
66831;DHT22;53739;44.224;22.528;2022-10-19T17:33:54;461.10;1382.40
66831;DHT22;53739;44.224;22.528;2022-10-19T17:36:21;461.10;1408.00
66831;DHT22;53739;44.224;22.528;2022-10-19T17:38:47;461.10;1408.00
66831;DHT22;53739;44.224;22.528;2022-10-19T17:41:14;461.10;1408.00
66831;DHT22;53739;44.224;22.528;2022-10-19T17:43:40;461.10;1408.00
66831;DHT22;53739;44.224;22.528;2022-10-19T17:46:07;461.00;1408.00
66831;DHT22;53739;44.224;22.528;2022-10-19T17:48:34;461.00;1408.00
66831;DHT22;53739;44.224;22.528;2022-10-19T17:51:02;461.00;1408.00
66831;DHT22;53739;44.224;22.528;2022-10-19T17:53:28;460.90;1433.60
66831;DHT22;53739;44.224;22.528;2022-10-19T17:58:46;460.90;1433.60
66831;DHT22;53739;44.224;22.528;2022-10-19T18:01:12;460.90;1433.60
66831;DHT22;53739;44.224;22.528;2022-10-19T18:03:38;461.00;1433.60
66831;DHT22;53739;44.224;22.528;2022-10-19T18:06:05;461.00;1459.20
66831;DHT22;53739;44.224;22.528;2022-10-19T18:08:36;460.90;1459.20
66831;DHT22;53739;44.224;22.528;2022-10-19T18:11:09;460.90;1484.80
66831;DHT22;53739;44.224;22.528;2022-10-19T18:13:42;460.90;1459.20
66831;DHT22;53739;44.224;22.528;2022-10-19T18:16:16;460.90;1484.80